TAM3037 SBGL-FACT
Flight info
| Callsign | TAM3037 |
|---|---|
| Flight time | N/A |
| Altitude | 39000 |
| Route | ADA UL224 APKIN UQ37 ASPIK |
| Aircraft | B77W/H-SDE1E2E3FGHIJ2J3J4J5M1RWXY/LB1D1 |
Departure
| Time | 2026-04-29 10:52 |
|---|---|
| Airport | Rio Galeão – Tom Jobim International Airport (SBGL) |
Arrival
| Time | N/A |
|---|---|
| Airport | Cape Town International Airport (FACT) |
| Time | Latitude | Longitude | Altitude | Speed | Heading |
|---|---|---|---|---|---|
| 2026-04-29 10:18 | -22.81804 | -43.24084 | 6 ft | 0 kts | 35° |
| 2026-04-29 10:20 | -22.81398 | -43.24825 | 26 ft | 0 kts | 86° |
| 2026-04-29 10:20 | -22.81453 | -43.24814 | 26 ft | 0 kts | 72° |
| 2026-04-29 10:31 | -22.81457 | -43.24827 | 26 ft | 4 kts | 77° |
| 2026-04-29 10:32 | -22.81460 | -43.24854 | 25 ft | 4 kts | 97° |
| 2026-04-29 10:32 | -22.81454 | -43.24877 | 24 ft | 4 kts | 124° |
| 2026-04-29 10:32 | -22.81438 | -43.24895 | 24 ft | 4 kts | 154° |
| 2026-04-29 10:32 | -22.81416 | -43.24903 | 24 ft | 2 kts | 171° |
| 2026-04-29 10:33 | -22.81415 | -43.24903 | 24 ft | 4 kts | 172° |
| 2026-04-29 10:39 | -22.81418 | -43.24903 | 26 ft | 4 kts | 172° |
| 2026-04-29 10:39 | -22.81466 | -43.24905 | 26 ft | 1 kts | 208° |
| 2026-04-29 10:40 | -22.81475 | -43.24921 | 26 ft | 5 kts | 244° |
| 2026-04-29 10:40 | -22.81476 | -43.24957 | 26 ft | 2 kts | 283° |
| 2026-04-29 10:40 | -22.81466 | -43.24978 | 26 ft | 5 kts | 296° |
| 2026-04-29 10:40 | -22.81450 | -43.25012 | 26 ft | 5 kts | 297° |
| 2026-04-29 10:41 | -22.81434 | -43.25045 | 26 ft | 5 kts | 298° |
| 2026-04-29 10:41 | -22.81414 | -43.25080 | 26 ft | 8 kts | 304° |
| 2026-04-29 10:41 | -22.81362 | -43.25144 | 26 ft | 12 kts | 313° |
| 2026-04-29 10:41 | -22.81307 | -43.25217 | 26 ft | 12 kts | 307° |
| 2026-04-29 10:42 | -22.81255 | -43.25292 | 26 ft | 12 kts | 310° |
| 2026-04-29 10:42 | -22.81186 | -43.25349 | 26 ft | 12 kts | 329° |
| 2026-04-29 10:42 | -22.81104 | -43.25379 | 26 ft | 12 kts | 349° |
| 2026-04-29 10:42 | -22.81020 | -43.25383 | 26 ft | 10 kts | 4° |
| 2026-04-29 10:43 | -22.80969 | -43.25398 | 27 ft | 7 kts | 323° |
| 2026-04-29 10:43 | -22.80943 | -43.25440 | 29 ft | 7 kts | 299° |
| 2026-04-29 10:43 | -22.80921 | -43.25487 | 33 ft | 7 kts | 296° |
| 2026-04-29 10:43 | -22.80900 | -43.25533 | 32 ft | 7 kts | 297° |
| 2026-04-29 10:44 | -22.80878 | -43.25580 | 30 ft | 8 kts | 296° |
| 2026-04-29 10:44 | -22.80839 | -43.25653 | 30 ft | 11 kts | 304° |
| 2026-04-29 10:44 | -22.80773 | -43.25673 | 32 ft | 10 kts | 12° |
| 2026-04-29 10:44 | -22.80701 | -43.25633 | 30 ft | 12 kts | 33° |
| 2026-04-29 10:45 | -22.80633 | -43.25583 | 30 ft | 12 kts | 35° |
| 2026-04-29 10:45 | -22.80564 | -43.25536 | 34 ft | 12 kts | 12° |
| 2026-04-29 10:45 | -22.80487 | -43.25565 | 35 ft | 12 kts | 327° |
| 2026-04-29 10:45 | -22.80416 | -43.25610 | 34 ft | 12 kts | 339° |
| 2026-04-29 10:46 | -22.80354 | -43.25597 | 32 ft | 0 kts | 34° |
| 2026-04-29 10:49 | -22.80347 | -43.25593 | 32 ft | 1 kts | 33° |
| 2026-04-29 10:49 | -22.80301 | -43.25556 | 30 ft | 14 kts | 38° |
| 2026-04-29 10:50 | -22.80197 | -43.25466 | 30 ft | 21 kts | 46° |
| 2026-04-29 10:50 | -22.80130 | -43.25305 | 30 ft | 14 kts | 67° |
| 2026-04-29 10:50 | -22.80110 | -43.25228 | 30 ft | 12 kts | 79° |
| 2026-04-29 10:50 | -22.80079 | -43.25081 | 32 ft | 29 kts | 71° |
| 2026-04-29 10:51 | -22.80007 | -43.24820 | 32 ft | 45 kts | 73° |
| 2026-04-29 10:51 | -22.79902 | -43.24443 | 37 ft | 60 kts | 76° |
| 2026-04-29 10:51 | -22.79779 | -43.23897 | 33 ft | 91 kts | 73° |
| 2026-04-29 10:51 | -22.79563 | -43.23088 | 41 ft | 132 kts | 71° |
| 2026-04-29 10:52 | -22.79277 | -43.21992 | 43 ft | 171 kts | 74° |
| 2026-04-29 10:52 | -22.78976 | -43.20698 | 320 ft | 180 kts | 87° |
| 2026-04-29 10:52 | -22.79144 | -43.19306 | 573 ft | 193 kts | 110° |
| 2026-04-29 10:52 | -22.79348 | -43.17868 | 1030 ft | 196 kts | 94° |
| 2026-04-29 10:53 | -22.79338 | -43.16314 | 1272 ft | 218 kts | 93° |
| 2026-04-29 10:53 | -22.79340 | -43.14593 | 1601 ft | 235 kts | 93° |
| 2026-04-29 10:53 | -22.79347 | -43.12794 | 2177 ft | 242 kts | 93° |
| 2026-04-29 10:53 | -22.79357 | -43.10973 | 2730 ft | 246 kts | 90° |
| 2026-04-29 10:54 | -22.81804 | -43.24084 | 19 ft | 0 kts | 35° |
| 2026-04-29 10:59 | -22.81803 | -43.24084 | 19 ft | 0 kts | 35° |